sensor_id;sensor_type;location;lat;lon;timestamp;temperature;humidity
54409;DHT22;40315;48.620;9.828;2023-03-18T00:15:13;6.50;99.90
54409;DHT22;40315;48.620;9.828;2023-03-18T00:56:48;6.10;99.90
54409;DHT22;40315;48.620;9.828;2023-03-18T01:01:43;6.00;99.90
54409;DHT22;40315;48.620;9.828;2023-03-18T01:04:11;5.90;99.90
54409;DHT22;40315;48.620;9.828;2023-03-18T01:06:38;5.90;99.90
54409;DHT22;40315;48.620;9.828;2023-03-18T01:09:09;5.80;99.90
54409;DHT22;40315;48.620;9.828;2023-03-18T01:11:39;5.90;99.90
54409;DHT22;40315;48.620;9.828;2023-03-18T01:14:07;5.90;99.90
54409;DHT22;40315;48.620;9.828;2023-03-18T01:16:36;5.80;99.90
54409;DHT22;40315;48.620;9.828;2023-03-18T01:19:03;5.80;99.90
54409;DHT22;40315;48.620;9.828;2023-03-18T01:21:31;5.80;99.90
54409;DHT22;40315;48.620;9.828;2023-03-18T01:24:00;5.80;99.90
54409;DHT22;40315;48.620;9.828;2023-03-18T01:26:30;5.80;99.90
54409;DHT22;40315;48.620;9.828;2023-03-18T01:28:58;5.70;99.90
54409;DHT22;40315;48.620;9.828;2023-03-18T01:31:28;5.70;99.90
54409;DHT22;40315;48.620;9.828;2023-03-18T01:34:00;5.70;99.90
54409;DHT22;40315;48.620;9.828;2023-03-18T01:36:35;5.60;99.90
54409;DHT22;40315;48.620;9.828;2023-03-18T01:39:08;5.70;99.90
54409;DHT22;40315;48.620;9.828;2023-03-18T01:41:39;5.80;99.90
54409;DHT22;40315;48.620;9.828;2023-03-18T01:44:12;5.90;99.90
54409;DHT22;40315;48.620;9.828;2023-03-18T01:50:03;5.70;99.90
54409;DHT22;40315;48.620;9.828;2023-03-18T01:52:31;5.70;99.90
54409;DHT22;40315;48.620;9.828;2023-03-18T01:54:59;5.60;99.90
54409;DHT22;40315;48.620;9.828;2023-03-18T01:57:29;4.90;99.90
54409;DHT22;40315;48.620;9.828;2023-03-18T02:00:00;5.70;99.90
54409;DHT22;40315;48.620;9.828;2023-03-18T02:02:40;5.60;99.90
54409;DHT22;40315;48.620;9.828;2023-03-18T02:05:11;5.60;99.90
54409;DHT22;40315;48.620;9.828;2023-03-18T02:07:41;5.60;99.90
54409;DHT22;40315;48.620;9.828;2023-03-18T02:10:13;5.50;99.90
54409;DHT22;40315;48.620;9.828;2023-03-18T02:12:44;5.50;99.90
54409;DHT22;40315;48.620;9.828;2023-03-18T02:15:18;5.40;99.90
54409;DHT22;40315;48.620;9.828;2023-03-18T02:17:52;5.40;99.90
54409;DHT22;40315;48.620;9.828;2023-03-18T02:20:32;5.40;99.90
54409;DHT22;40315;48.620;9.828;2023-03-18T02:23:07;5.40;99.90
54409;DHT22;40315;48.620;9.828;2023-03-18T02:25:43;5.40;99.90
54409;DHT22;40315;48.620;9.828;2023-03-18T02:28:18;5.40;99.90
54409;DHT22;40315;48.620;9.828;2023-03-18T02:30:51;5.40;99.90
54409;DHT22;40315;48.620;9.828;2023-03-18T02:33:21;5.40;99.90
54409;DHT22;40315;48.620;9.828;2023-03-18T02:35:53;5.40;99.90
54409;DHT22;40315;48.620;9.828;2023-03-18T02:38:21;5.40;99.90
54409;DHT22;40315;48.620;9.828;2023-03-18T02:40:49;5.40;99.90
54409;DHT22;40315;48.620;9.828;2023-03-18T02:43:25;5.30;99.90
54409;DHT22;40315;48.620;9.828;2023-03-18T02:46:17;5.30;99.90
54409;DHT22;40315;48.620;9.828;2023-03-18T02:48:49;5.30;99.90
54409;DHT22;40315;48.620;9.828;2023-03-18T02:51:18;5.20;99.90
54409;DHT22;40315;48.620;9.828;2023-03-18T02:53:46;5.20;99.90
54409;DHT22;40315;48.620;9.828;2023-03-18T02:56:13;5.10;99.90
54409;DHT22;40315;48.620;9.828;2023-03-18T02:58:43;5.20;99.90
54409;DHT22;40315;48.620;9.828;2023-03-18T03:01:11;5.20;99.90
54409;DHT22;40315;48.620;9.828;2023-03-18T03:03:39;5.20;99.90
54409;DHT22;40315;48.620;9.828;2023-03-18T03:06:08;5.20;99.90
54409;DHT22;40315;48.620;9.828;2023-03-18T03:08:38;5.20;99.90
54409;DHT22;40315;48.620;9.828;2023-03-18T03:11:06;5.20;99.90
54409;DHT22;40315;48.620;9.828;2023-03-18T03:13:40;5.20;99.90
54409;DHT22;40315;48.620;9.828;2023-03-18T03:16:13;5.20;99.90
54409;DHT22;40315;48.620;9.828;2023-03-18T03:18:42;5.30;99.90
54409;DHT22;40315;48.620;9.828;2023-03-18T03:21:11;5.30;99.90
54409;DHT22;40315;48.620;9.828;2023-03-18T03:23:39;5.20;99.90
54409;DHT22;40315;48.620;9.828;2023-03-18T03:26:07;5.30;99.90
54409;DHT22;40315;48.620;9.828;2023-03-18T03:28:34;5.30;99.90
54409;DHT22;40315;48.620;9.828;2023-03-18T03:31:01;5.30;99.90
54409;DHT22;40315;48.620;9.828;2023-03-18T03:33:30;5.20;99.90
54409;DHT22;40315;48.620;9.828;2023-03-18T03:36:00;5.20;99.90
54409;DHT22;40315;48.620;9.828;2023-03-18T03:38:30;5.30;99.90
54409;DHT22;40315;48.620;9.828;2023-03-18T03:40:58;5.30;99.90
54409;DHT22;40315;48.620;9.828;2023-03-18T03:43:25;5.30;99.90
54409;DHT22;40315;48.620;9.828;2023-03-18T03:45:52;5.30;99.90
54409;DHT22;40315;48.620;9.828;2023-03-18T03:48:22;5.20;99.90
54409;DHT22;40315;48.620;9.828;2023-03-18T03:50:51;5.20;99.90
54409;DHT22;40315;48.620;9.828;2023-03-18T03:53:19;5.30;99.90
54409;DHT22;40315;48.620;9.828;2023-03-18T03:55:46;5.20;99.90
54409;DHT22;40315;48.620;9.828;2023-03-18T03:58:13;5.20;99.90
54409;DHT22;40315;48.620;9.828;2023-03-18T04:00:43;5.20;99.90
54409;DHT22;40315;48.620;9.828;2023-03-18T04:03:10;5.20;99.90
54409;DHT22;40315;48.620;9.828;2023-03-18T04:05:38;5.20;99.90
54409;DHT22;40315;48.620;9.828;2023-03-18T04:08:07;5.20;99.90
54409;DHT22;40315;48.620;9.828;2023-03-18T04:10:36;5.20;99.90
54409;DHT22;40315;48.620;9.828;2023-03-18T04:13:06;5.10;99.90
54409;DHT22;40315;48.620;9.828;2023-03-18T04:15:36;5.10;99.90
54409;DHT22;40315;48.620;9.828;2023-03-18T04:18:08;5.20;99.90
54409;DHT22;40315;48.620;9.828;2023-03-18T04:20:37;5.40;99.90
54409;DHT22;40315;48.620;9.828;2023-03-18T04:23:14;5.30;99.90
54409;DHT22;40315;48.620;9.828;2023-03-18T04:25:41;5.30;99.90
54409;DHT22;40315;48.620;9.828;2023-03-18T04:28:09;5.30;99.90
54409;DHT22;40315;48.620;9.828;2023-03-18T04:30:36;5.30;99.90
54409;DHT22;40315;48.620;9.828;2023-03-18T04:33:08;5.20;99.90
54409;DHT22;40315;48.620;9.828;2023-03-18T04:35:39;5.30;99.90
54409;DHT22;40315;48.620;9.828;2023-03-18T04:38:07;5.30;99.90
54409;DHT22;40315;48.620;9.828;2023-03-18T04:40:36;5.30;99.90
54409;DHT22;40315;48.620;9.828;2023-03-18T04:43:06;5.20;99.90
54409;DHT22;40315;48.620;9.828;2023-03-18T04:45:34;5.20;99.90
54409;DHT22;40315;48.620;9.828;2023-03-18T04:48:03;5.10;99.90
54409;DHT22;40315;48.620;9.828;2023-03-18T04:50:35;5.20;99.90
54409;DHT22;40315;48.620;9.828;2023-03-18T04:53:04;5.10;99.90
54409;DHT22;40315;48.620;9.828;2023-03-18T04:55:31;5.10;99.90
54409;DHT22;40315;48.620;9.828;2023-03-18T04:58:03;5.10;99.90
54409;DHT22;40315;48.620;9.828;2023-03-18T05:00:36;5.10;99.90
54409;DHT22;40315;48.620;9.828;2023-03-18T05:03:15;5.10;99.90
54409;DHT22;40315;48.620;9.828;2023-03-18T05:05:42;5.00;99.90
54409;DHT22;40315;48.620;9.828;2023-03-18T05:08:11;5.10;99.90
54409;DHT22;40315;48.620;9.828;2023-03-18T05:10:40;5.10;99.90
54409;DHT22;40315;48.620;9.828;2023-03-18T05:13:09;5.10;99.90
54409;DHT22;40315;48.620;9.828;2023-03-18T05:15:36;5.10;99.90
54409;DHT22;40315;48.620;9.828;2023-03-18T05:18:06;5.10;99.90
54409;DHT22;40315;48.620;9.828;2023-03-18T05:20:33;5.10;99.90
54409;DHT22;40315;48.620;9.828;2023-03-18T05:23:01;5.20;99.90
54409;DHT22;40315;48.620;9.828;2023-03-18T05:25:46;5.10;99.90
54409;DHT22;40315;48.620;9.828;2023-03-18T05:28:14;5.10;99.90
54409;DHT22;40315;48.620;9.828;2023-03-18T05:30:56;5.10;99.90
54409;DHT22;40315;48.620;9.828;2023-03-18T05:33:23;5.00;99.90
54409;DHT22;40315;48.620;9.828;2023-03-18T05:35:54;4.20;99.90
54409;DHT22;40315;48.620;9.828;2023-03-18T05:38:27;5.00;99.90
54409;DHT22;40315;48.620;9.828;2023-03-18T05:40:54;5.00;99.90
54409;DHT22;40315;48.620;9.828;2023-03-18T05:43:31;5.00;99.90
54409;DHT22;40315;48.620;9.828;2023-03-18T05:45:58;5.10;99.90
54409;DHT22;40315;48.620;9.828;2023-03-18T05:48:51;5.00;99.90
54409;DHT22;40315;48.620;9.828;2023-03-18T05:51:23;4.90;99.90
54409;DHT22;40315;48.620;9.828;2023-03-18T05:53:51;4.80;99.90
54409;DHT22;40315;48.620;9.828;2023-03-18T05:56:23;4.90;99.90
54409;DHT22;40315;48.620;9.828;2023-03-18T05:58:56;5.00;99.90
54409;DHT22;40315;48.620;9.828;2023-03-18T06:01:37;5.20;99.90
54409;DHT22;40315;48.620;9.828;2023-03-18T06:04:05;5.00;99.90
54409;DHT22;40315;48.620;9.828;2023-03-18T06:06:33;5.10;99.90
54409;DHT22;40315;48.620;9.828;2023-03-18T06:09:00;5.10;99.90
54409;DHT22;40315;48.620;9.828;2023-03-18T06:11:27;5.00;99.90
54409;DHT22;40315;48.620;9.828;2023-03-18T06:13:56;5.10;99.90
54409;DHT22;40315;48.620;9.828;2023-03-18T06:16:24;5.30;99.90
54409;DHT22;40315;48.620;9.828;2023-03-18T06:18:54;5.30;99.90
54409;DHT22;40315;48.620;9.828;2023-03-18T06:21:23;5.20;99.90
54409;DHT22;40315;48.620;9.828;2023-03-18T06:23:52;5.30;99.90
54409;DHT22;40315;48.620;9.828;2023-03-18T06:26:22;5.30;99.90
54409;DHT22;40315;48.620;9.828;2023-03-18T06:28:49;5.40;99.90
54409;DHT22;40315;48.620;9.828;2023-03-18T06:31:17;5.40;99.90
54409;DHT22;40315;48.620;9.828;2023-03-18T06:33:49;5.60;99.90
54409;DHT22;40315;48.620;9.828;2023-03-18T06:36:17;5.60;99.90
54409;DHT22;40315;48.620;9.828;2023-03-18T06:38:47;5.70;99.90
54409;DHT22;40315;48.620;9.828;2023-03-18T06:41:16;5.80;99.90
54409;DHT22;40315;48.620;9.828;2023-03-18T06:44:09;5.60;99.90
54409;DHT22;40315;48.620;9.828;2023-03-18T06:46:39;6.10;99.90
54409;DHT22;40315;48.620;9.828;2023-03-18T06:49:07;6.20;99.90
54409;DHT22;40315;48.620;9.828;2023-03-18T06:51:43;6.00;99.90
54409;DHT22;40315;48.620;9.828;2023-03-18T06:54:11;6.10;99.90
54409;DHT22;40315;48.620;9.828;2023-03-18T06:56:38;6.10;99.90
54409;DHT22;40315;48.620;9.828;2023-03-18T06:59:15;6.10;99.90
54409;DHT22;40315;48.620;9.828;2023-03-18T07:01:44;6.20;99.90
54409;DHT22;40315;48.620;9.828;2023-03-18T07:04:12;6.30;99.90
54409;DHT22;40315;48.620;9.828;2023-03-18T07:06:41;6.70;99.90
54409;DHT22;40315;48.620;9.828;2023-03-18T07:09:09;6.60;99.90
54409;DHT22;40315;48.620;9.828;2023-03-18T07:11:38;6.70;99.90
54409;DHT22;40315;48.620;9.828;2023-03-18T07:14:11;6.90;99.90
54409;DHT22;40315;48.620;9.828;2023-03-18T07:16:41;7.20;99.90
54409;DHT22;40315;48.620;9.828;2023-03-18T07:19:10;7.50;99.90
54409;DHT22;40315;48.620;9.828;2023-03-18T07:21:39;7.80;99.90
54409;DHT22;40315;48.620;9.828;2023-03-18T07:24:08;8.10;99.90
54409;DHT22;40315;48.620;9.828;2023-03-18T07:26:39;8.90;99.90
54409;DHT22;40315;48.620;9.828;2023-03-18T07:29:08;9.50;99.90
54409;DHT22;40315;48.620;9.828;2023-03-18T07:31:35;10.20;99.90
54409;DHT22;40315;48.620;9.828;2023-03-18T07:34:03;10.60;99.90
54409;DHT22;40315;48.620;9.828;2023-03-18T07:36:31;10.90;99.90
54409;DHT22;40315;48.620;9.828;2023-03-18T07:38:58;10.80;99.90
54409;DHT22;40315;48.620;9.828;2023-03-18T07:41:28;10.70;99.90
54409;DHT22;40315;48.620;9.828;2023-03-18T07:43:57;11.00;99.90
54409;DHT22;40315;48.620;9.828;2023-03-18T07:46:24;11.60;99.90
54409;DHT22;40315;48.620;9.828;2023-03-18T07:48:54;12.00;99.90
54409;DHT22;40315;48.620;9.828;2023-03-18T07:51:21;12.40;99.90
54409;DHT22;40315;48.620;9.828;2023-03-18T07:53:49;12.40;99.90
54409;DHT22;40315;48.620;9.828;2023-03-18T07:56:16;12.50;99.90
54409;DHT22;40315;48.620;9.828;2023-03-18T07:58:43;12.90;99.90
54409;DHT22;40315;48.620;9.828;2023-03-18T08:01:10;13.20;99.90
54409;DHT22;40315;48.620;9.828;2023-03-18T08:03:40;13.30;99.90
54409;DHT22;40315;48.620;9.828;2023-03-18T08:06:08;13.10;99.90
54409;DHT22;40315;48.620;9.828;2023-03-18T08:08:36;13.20;99.90
54409;DHT22;40315;48.620;9.828;2023-03-18T08:11:04;12.90;99.90
54409;DHT22;40315;48.620;9.828;2023-03-18T08:13:32;12.90;99.90
54409;DHT22;40315;48.620;9.828;2023-03-18T08:16:02;13.00;99.90
54409;DHT22;40315;48.620;9.828;2023-03-18T08:18:29;13.10;99.90
54409;DHT22;40315;48.620;9.828;2023-03-18T08:20:56;13.40;99.90
54409;DHT22;40315;48.620;9.828;2023-03-18T08:23:26;13.20;99.90
54409;DHT22;40315;48.620;9.828;2023-03-18T08:25:53;13.30;99.90
54409;DHT22;40315;48.620;9.828;2023-03-18T08:28:21;13.70;99.90
54409;DHT22;40315;48.620;9.828;2023-03-18T08:30:52;14.10;99.90
54409;DHT22;40315;48.620;9.828;2023-03-18T08:33:20;14.40;99.90
54409;DHT22;40315;48.620;9.828;2023-03-18T08:35:48;15.00;99.90
54409;DHT22;40315;48.620;9.828;2023-03-18T08:38:18;15.10;99.90
54409;DHT22;40315;48.620;9.828;2023-03-18T08:40:45;15.30;99.90
54409;DHT22;40315;48.620;9.828;2023-03-18T08:43:15;16.00;99.90
54409;DHT22;40315;48.620;9.828;2023-03-18T08:45:43;16.50;99.90
54409;DHT22;40315;48.620;9.828;2023-03-18T08:48:13;16.60;99.90
54409;DHT22;40315;48.620;9.828;2023-03-18T08:50:40;16.70;99.90
54409;DHT22;40315;48.620;9.828;2023-03-18T08:53:09;16.60;99.90
54409;DHT22;40315;48.620;9.828;2023-03-18T08:55:37;16.30;99.90
54409;DHT22;40315;48.620;9.828;2023-03-18T08:58:05;16.70;99.90
54409;DHT22;40315;48.620;9.828;2023-03-18T09:00:34;16.30;99.90
54409;DHT22;40315;48.620;9.828;2023-03-18T09:03:06;16.00;99.90
54409;DHT22;40315;48.620;9.828;2023-03-18T09:05:33;16.30;99.90
54409;DHT22;40315;48.620;9.828;2023-03-18T09:08:00;16.90;99.90
54409;DHT22;40315;48.620;9.828;2023-03-18T09:10:28;17.20;99.90
54409;DHT22;40315;48.620;9.828;2023-03-18T09:12:56;17.30;99.90
54409;DHT22;40315;48.620;9.828;2023-03-18T09:15:23;17.50;99.90
54409;DHT22;40315;48.620;9.828;2023-03-18T09:17:51;17.70;99.90
54409;DHT22;40315;48.620;9.828;2023-03-18T09:20:20;17.80;97.80
54409;DHT22;40315;48.620;9.828;2023-03-18T09:22:50;17.90;97.20
54409;DHT22;40315;48.620;9.828;2023-03-18T09:25:18;17.30;94.90
54409;DHT22;40315;48.620;9.828;2023-03-18T09:27:45;17.00;94.30
54409;DHT22;40315;48.620;9.828;2023-03-18T09:30:13;16.60;93.20
54409;DHT22;40315;48.620;9.828;2023-03-18T09:32:40;17.10;97.40
54409;DHT22;40315;48.620;9.828;2023-03-18T09:35:10;17.70;96.80
54409;DHT22;40315;48.620;9.828;2023-03-18T09:37:40;18.10;94.10
54409;DHT22;40315;48.620;9.828;2023-03-18T09:40:17;18.30;93.40
54409;DHT22;40315;48.620;9.828;2023-03-18T09:42:54;18.40;92.60
54409;DHT22;40315;48.620;9.828;2023-03-18T09:45:30;17.80;90.70
54409;DHT22;40315;48.620;9.828;2023-03-18T09:51:08;17.30;90.40
54409;DHT22;40315;48.620;9.828;2023-03-18T09:53:47;17.60;90.70
54409;DHT22;40315;48.620;9.828;2023-03-18T09:56:18;17.60;91.50
54409;DHT22;40315;48.620;9.828;2023-03-18T09:58:51;18.00;91.10
54409;DHT22;40315;48.620;9.828;2023-03-18T10:01:22;17.90;90.20
54409;DHT22;40315;48.620;9.828;2023-03-18T10:03:53;17.90;89.60
54409;DHT22;40315;48.620;9.828;2023-03-18T10:06:29;17.80;90.30
54409;DHT22;40315;48.620;9.828;2023-03-18T10:09:05;17.70;90.10
54409;DHT22;40315;48.620;9.828;2023-03-18T10:11:38;17.60;89.20
54409;DHT22;40315;48.620;9.828;2023-03-18T10:14:20;17.50;87.60
54409;DHT22;40315;48.620;9.828;2023-03-18T10:17:00;17.20;87.80
54409;DHT22;40315;48.620;9.828;2023-03-18T10:19:29;17.40;89.00
54409;DHT22;40315;48.620;9.828;2023-03-18T10:22:10;17.80;90.60
54409;DHT22;40315;48.620;9.828;2023-03-18T10:24:46;17.00;87.70
54409;DHT22;40315;48.620;9.828;2023-03-18T10:27:20;18.20;88.30
54409;DHT22;40315;48.620;9.828;2023-03-18T10:29:57;18.00;87.80
54409;DHT22;40315;48.620;9.828;2023-03-18T10:32:34;18.30;87.70
54409;DHT22;40315;48.620;9.828;2023-03-18T10:35:15;18.30;85.40
54409;DHT22;40315;48.620;9.828;2023-03-18T10:37:52;17.80;87.90
54409;DHT22;40315;48.620;9.828;2023-03-18T10:40:24;18.40;84.90
54409;DHT22;40315;48.620;9.828;2023-03-18T10:42:54;18.70;86.30
54409;DHT22;40315;48.620;9.828;2023-03-18T10:45:24;18.80;81.40
54409;DHT22;40315;48.620;9.828;2023-03-18T10:47:57;18.10;84.20
54409;DHT22;40315;48.620;9.828;2023-03-18T10:50:31;18.40;84.30
54409;DHT22;40315;48.620;9.828;2023-03-18T10:53:03;18.80;80.70
54409;DHT22;40315;48.620;9.828;2023-03-18T10:55:38;18.80;82.30
54409;DHT22;40315;48.620;9.828;2023-03-18T10:58:14;19.00;82.30
54409;DHT22;40315;48.620;9.828;2023-03-18T11:00:41;19.00;78.90
54409;DHT22;40315;48.620;9.828;2023-03-18T11:03:20;18.50;78.60
54409;DHT22;40315;48.620;9.828;2023-03-18T11:05:51;18.70;79.10
54409;DHT22;40315;48.620;9.828;2023-03-18T11:08:30;19.10;81.40
54409;DHT22;40315;48.620;9.828;2023-03-18T11:11:14;18.50;78.70
54409;DHT22;40315;48.620;9.828;2023-03-18T11:13:46;18.20;81.70
54409;DHT22;40315;48.620;9.828;2023-03-18T11:16:22;18.70;83.40
54409;DHT22;40315;48.620;9.828;2023-03-18T11:18:51;19.20;81.00
54409;DHT22;40315;48.620;9.828;2023-03-18T11:21:19;19.80;80.80
54409;DHT22;40315;48.620;9.828;2023-03-18T11:23:54;20.30;78.90
54409;DHT22;40315;48.620;9.828;2023-03-18T11:26:55;20.60;75.80
54409;DHT22;40315;48.620;9.828;2023-03-18T11:29:25;20.10;72.70
54409;DHT22;40315;48.620;9.828;2023-03-18T11:31:53;19.30;74.40
54409;DHT22;40315;48.620;9.828;2023-03-18T11:34:23;19.60;76.50
54409;DHT22;40315;48.620;9.828;2023-03-18T11:36:58;20.40;74.80
54409;DHT22;40315;48.620;9.828;2023-03-18T11:39:30;20.90;72.90
54409;DHT22;40315;48.620;9.828;2023-03-18T11:42:19;20.90;70.10
54409;DHT22;40315;48.620;9.828;2023-03-18T11:44:47;20.50;71.50
54409;DHT22;40315;48.620;9.828;2023-03-18T11:47:22;20.50;70.90
54409;DHT22;40315;48.620;9.828;2023-03-18T11:49:54;20.10;70.00
54409;DHT22;40315;48.620;9.828;2023-03-18T11:52:31;20.10;70.00
54409;DHT22;40315;48.620;9.828;2023-03-18T11:55:15;20.00;71.40
54409;DHT22;40315;48.620;9.828;2023-03-18T12:00:50;20.70;66.70
54409;DHT22;40315;48.620;9.828;2023-03-18T12:03:48;21.30;66.80
54409;DHT22;40315;48.620;9.828;2023-03-18T12:06:20;21.40;67.30
54409;DHT22;40315;48.620;9.828;2023-03-18T12:08:56;21.40;65.20
54409;DHT22;40315;48.620;9.828;2023-03-18T12:11:43;21.60;66.10
54409;DHT22;40315;48.620;9.828;2023-03-18T12:14:19;22.00;64.50
54409;DHT22;40315;48.620;9.828;2023-03-18T12:16:57;22.40;59.80
54409;DHT22;40315;48.620;9.828;2023-03-18T12:19:41;22.40;57.70
54409;DHT22;40315;48.620;9.828;2023-03-18T12:22:33;22.40;58.30
54409;DHT22;40315;48.620;9.828;2023-03-18T12:27:47;22.10;57.50
54409;DHT22;40315;48.620;9.828;2023-03-18T12:30:44;22.00;57.20
54409;DHT22;40315;48.620;9.828;2023-03-18T12:33:24;22.40;58.00
54409;DHT22;40315;48.620;9.828;2023-03-18T12:36:00;23.00;58.40
54409;DHT22;40315;48.620;9.828;2023-03-18T12:39:02;23.30;58.50
54409;DHT22;40315;48.620;9.828;2023-03-18T12:41:41;23.10;56.80
54409;DHT22;40315;48.620;9.828;2023-03-18T12:44:25;23.00;56.90
54409;DHT22;40315;48.620;9.828;2023-03-18T12:46:59;22.80;58.20
54409;DHT22;40315;48.620;9.828;2023-03-18T12:49:33;23.20;56.00
54409;DHT22;40315;48.620;9.828;2023-03-18T12:52:04;23.50;56.50
54409;DHT22;40315;48.620;9.828;2023-03-18T12:54:37;22.80;57.20
54409;DHT22;40315;48.620;9.828;2023-03-18T12:57:11;22.00;57.80
54409;DHT22;40315;48.620;9.828;2023-03-18T12:59:42;22.10;57.90
54409;DHT22;40315;48.620;9.828;2023-03-18T13:02:43;22.50;56.30
54409;DHT22;40315;48.620;9.828;2023-03-18T13:05:30;22.80;57.00
54409;DHT22;40315;48.620;9.828;2023-03-18T13:08:37;22.60;56.50
54409;DHT22;40315;48.620;9.828;2023-03-18T13:11:13;23.10;58.00
54409;DHT22;40315;48.620;9.828;2023-03-18T13:13:52;22.60;56.10
54409;DHT22;40315;48.620;9.828;2023-03-18T13:16:23;22.60;57.20
54409;DHT22;40315;48.620;9.828;2023-03-18T13:18:52;22.10;56.70
54409;DHT22;40315;48.620;9.828;2023-03-18T13:21:24;21.90;56.90
54409;DHT22;40315;48.620;9.828;2023-03-18T13:24:18;22.00;57.10
54409;DHT22;40315;48.620;9.828;2023-03-18T13:27:07;21.60;56.90
54409;DHT22;40315;48.620;9.828;2023-03-18T13:29:43;21.20;57.80
54409;DHT22;40315;48.620;9.828;2023-03-18T13:32:33;19.00;57.30
54409;DHT22;40315;48.620;9.828;2023-03-18T13:35:17;20.40;58.60
54409;DHT22;40315;48.620;9.828;2023-03-18T13:38:14;20.50;59.20
54409;DHT22;40315;48.620;9.828;2023-03-18T13:41:09;20.70;59.90
54409;DHT22;40315;48.620;9.828;2023-03-18T13:43:40;20.70;60.50
54409;DHT22;40315;48.620;9.828;2023-03-18T13:46:19;20.60;60.70
54409;DHT22;40315;48.620;9.828;2023-03-18T13:48:47;20.80;61.30
54409;DHT22;40315;48.620;9.828;2023-03-18T13:51:19;21.00;62.80
54409;DHT22;40315;48.620;9.828;2023-03-18T13:54:13;21.20;61.40
54409;DHT22;40315;48.620;9.828;2023-03-18T13:56:49;20.90;61.20
54409;DHT22;40315;48.620;9.828;2023-03-18T13:59:43;21.10;61.40
54409;DHT22;40315;48.620;9.828;2023-03-18T14:02:42;20.90;60.10
54409;DHT22;40315;48.620;9.828;2023-03-18T14:05:35;20.90;64.20
54409;DHT22;40315;48.620;9.828;2023-03-18T14:08:40;20.90;60.60
54409;DHT22;40315;48.620;9.828;2023-03-18T14:11:42;21.00;60.90
54409;DHT22;40315;48.620;9.828;2023-03-18T14:17:22;21.50;58.80
54409;DHT22;40315;48.620;9.828;2023-03-18T14:19:53;21.60;57.90
54409;DHT22;40315;48.620;9.828;2023-03-18T14:22:25;21.50;58.80
54409;DHT22;40315;48.620;9.828;2023-03-18T14:25:19;21.30;58.10
54409;DHT22;40315;48.620;9.828;2023-03-18T14:27:49;21.10;60.20
54409;DHT22;40315;48.620;9.828;2023-03-18T14:30:48;20.50;59.60
54409;DHT22;40315;48.620;9.828;2023-03-18T14:37:04;19.70;61.80
54409;DHT22;40315;48.620;9.828;2023-03-18T14:39:39;19.60;62.70
54409;DHT22;40315;48.620;9.828;2023-03-18T14:42:19;19.50;62.70
54409;DHT22;40315;48.620;9.828;2023-03-18T14:44:53;19.40;64.90
54409;DHT22;40315;48.620;9.828;2023-03-18T14:47:24;19.50;63.60
54409;DHT22;40315;48.620;9.828;2023-03-18T14:49:55;19.50;64.60
54409;DHT22;40315;48.620;9.828;2023-03-18T14:52:28;19.50;64.10
54409;DHT22;40315;48.620;9.828;2023-03-18T14:55:00;19.50;65.30
54409;DHT22;40315;48.620;9.828;2023-03-18T14:57:29;19.60;67.70
54409;DHT22;40315;48.620;9.828;2023-03-18T14:59:57;19.60;67.80
54409;DHT22;40315;48.620;9.828;2023-03-18T15:02:31;19.70;68.50
54409;DHT22;40315;48.620;9.828;2023-03-18T15:04:59;19.80;66.60
54409;DHT22;40315;48.620;9.828;2023-03-18T15:07:32;19.70;65.70
54409;DHT22;40315;48.620;9.828;2023-03-18T15:10:07;19.70;66.40
54409;DHT22;40315;48.620;9.828;2023-03-18T15:12:39;19.80;65.90
54409;DHT22;40315;48.620;9.828;2023-03-18T15:15:13;19.60;64.50
54409;DHT22;40315;48.620;9.828;2023-03-18T15:17:44;19.40;65.10
54409;DHT22;40315;48.620;9.828;2023-03-18T15:20:15;19.20;66.60
54409;DHT22;40315;48.620;9.828;2023-03-18T15:22:45;19.30;67.50
54409;DHT22;40315;48.620;9.828;2023-03-18T15:25:17;19.40;65.50
54409;DHT22;40315;48.620;9.828;2023-03-18T15:27:47;19.30;67.40
54409;DHT22;40315;48.620;9.828;2023-03-18T15:30:24;19.30;66.40
54409;DHT22;40315;48.620;9.828;2023-03-18T15:33:05;19.30;67.60
54409;DHT22;40315;48.620;9.828;2023-03-18T15:35:33;19.40;66.90
54409;DHT22;40315;48.620;9.828;2023-03-18T15:38:13;19.20;67.60
54409;DHT22;40315;48.620;9.828;2023-03-18T15:40:46;19.00;66.80
54409;DHT22;40315;48.620;9.828;2023-03-18T15:43:37;18.90;67.20
54409;DHT22;40315;48.620;9.828;2023-03-18T15:46:06;18.90;68.50
54409;DHT22;40315;48.620;9.828;2023-03-18T15:48:41;18.70;66.70
54409;DHT22;40315;48.620;9.828;2023-03-18T15:51:23;18.70;67.20
54409;DHT22;40315;48.620;9.828;2023-03-18T15:53:52;18.70;67.50
54409;DHT22;40315;48.620;9.828;2023-03-18T15:56:24;18.70;68.50
54409;DHT22;40315;48.620;9.828;2023-03-18T15:59:11;18.70;68.00
54409;DHT22;40315;48.620;9.828;2023-03-18T16:01:38;18.70;69.60
54409;DHT22;40315;48.620;9.828;2023-03-18T16:04:07;18.80;68.50
54409;DHT22;40315;48.620;9.828;2023-03-18T16:06:39;18.50;64.80
54409;DHT22;40315;48.620;9.828;2023-03-18T16:09:14;18.10;65.20
54409;DHT22;40315;48.620;9.828;2023-03-18T16:11:43;18.10;68.40
54409;DHT22;40315;48.620;9.828;2023-03-18T16:14:14;18.30;72.80
54409;DHT22;40315;48.620;9.828;2023-03-18T16:16:42;18.20;69.00
54409;DHT22;40315;48.620;9.828;2023-03-18T16:19:13;18.10;67.30
54409;DHT22;40315;48.620;9.828;2023-03-18T16:21:41;18.20;70.50
54409;DHT22;40315;48.620;9.828;2023-03-18T16:24:08;18.20;72.10
54409;DHT22;40315;48.620;9.828;2023-03-18T16:26:38;18.40;74.70
54409;DHT22;40315;48.620;9.828;2023-03-18T16:29:14;18.40;73.20
54409;DHT22;40315;48.620;9.828;2023-03-18T16:31:41;18.20;74.40
54409;DHT22;40315;48.620;9.828;2023-03-18T16:34:13;18.10;74.40
54409;DHT22;40315;48.620;9.828;2023-03-18T16:36:41;18.00;76.30
54409;DHT22;40315;48.620;9.828;2023-03-18T16:39:16;18.00;79.20
54409;DHT22;40315;48.620;9.828;2023-03-18T16:41:45;18.00;78.30
54409;DHT22;40315;48.620;9.828;2023-03-18T16:44:16;17.90;78.60
54409;DHT22;40315;48.620;9.828;2023-03-18T16:46:45;17.70;78.40
54409;DHT22;40315;48.620;9.828;2023-03-18T16:49:20;17.40;78.50
54409;DHT22;40315;48.620;9.828;2023-03-18T16:51:49;17.10;78.00
54409;DHT22;40315;48.620;9.828;2023-03-18T16:54:17;16.90;79.60
54409;DHT22;40315;48.620;9.828;2023-03-18T16:56:44;16.70;80.10
54409;DHT22;40315;48.620;9.828;2023-03-18T16:59:14;16.60;80.20
54409;DHT22;40315;48.620;9.828;2023-03-18T17:01:42;16.40;80.50
54409;DHT22;40315;48.620;9.828;2023-03-18T17:04:17;16.40;84.90
54409;DHT22;40315;48.620;9.828;2023-03-18T17:06:49;16.40;82.80
54409;DHT22;40315;48.620;9.828;2023-03-18T17:09:19;16.30;85.00
54409;DHT22;40315;48.620;9.828;2023-03-18T17:11:48;16.30;88.30
54409;DHT22;40315;48.620;9.828;2023-03-18T17:14:27;16.30;87.80
54409;DHT22;40315;48.620;9.828;2023-03-18T17:16:59;16.00;86.70
54409;DHT22;40315;48.620;9.828;2023-03-18T17:19:27;15.90;89.10
54409;DHT22;40315;48.620;9.828;2023-03-18T17:21:54;15.90;89.00
54409;DHT22;40315;48.620;9.828;2023-03-18T17:24:21;15.70;88.70
54409;DHT22;40315;48.620;9.828;2023-03-18T17:26:48;15.70;89.20